sensor_id;sensor_type;location;lat;lon;timestamp;P1;durP1;ratioP1;P2;durP2;ratioP2
22468;SDS011;11401;50.792;4.352;2023-07-20T00:01:52;5.32;;;2.22;;
22468;SDS011;11401;50.792;4.352;2023-07-20T00:04:19;8.07;;;2.25;;
22468;SDS011;11401;50.792;4.352;2023-07-20T00:06:46;4.78;;;2.17;;
22468;SDS011;11401;50.792;4.352;2023-07-20T00:09:13;5.60;;;2.20;;
22468;SDS011;11401;50.792;4.352;2023-07-20T00:11:47;3.45;;;2.40;;
22468;SDS011;11401;50.792;4.352;2023-07-20T00:14:17;7.85;;;2.03;;
22468;SDS011;11401;50.792;4.352;2023-07-20T00:16:45;3.15;;;2.20;;
22468;SDS011;11401;50.792;4.352;2023-07-20T00:19:13;3.50;;;2.33;;
22468;SDS011;11401;50.792;4.352;2023-07-20T00:21:43;5.15;;;2.17;;
22468;SDS011;11401;50.792;4.352;2023-07-20T00:24:10;3.95;;;2.35;;
22468;SDS011;11401;50.792;4.352;2023-07-20T00:26:37;3.53;;;2.47;;
22468;SDS011;11401;50.792;4.352;2023-07-20T00:29:04;4.18;;;2.55;;
22468;SDS011;11401;50.792;4.352;2023-07-20T00:31:31;2.70;;;2.40;;
22468;SDS011;11401;50.792;4.352;2023-07-20T00:33:59;3.92;;;2.60;;
22468;SDS011;11401;50.792;4.352;2023-07-20T00:36:26;2.58;;;1.92;;
22468;SDS011;11401;50.792;4.352;2023-07-20T00:38:53;6.28;;;2.97;;
22468;SDS011;11401;50.792;4.352;2023-07-20T00:41:20;4.43;;;2.25;;
22468;SDS011;11401;50.792;4.352;2023-07-20T00:43:47;5.32;;;2.33;;
22468;SDS011;11401;50.792;4.352;2023-07-20T00:46:14;5.25;;;2.55;;
22468;SDS011;11401;50.792;4.352;2023-07-20T00:48:41;6.95;;;2.30;;
22468;SDS011;11401;50.792;4.352;2023-07-20T00:51:09;2.75;;;2.38;;
22468;SDS011;11401;50.792;4.352;2023-07-20T00:53:38;3.55;;;2.53;;
22468;SDS011;11401;50.792;4.352;2023-07-20T00:56:05;4.90;;;2.55;;
22468;SDS011;11401;50.792;4.352;2023-07-20T00:58:34;2.55;;;2.20;;
22468;SDS011;11401;50.792;4.352;2023-07-20T01:01:02;6.75;;;2.47;;
22468;SDS011;11401;50.792;4.352;2023-07-20T01:03:29;5.25;;;2.50;;
22468;SDS011;11401;50.792;4.352;2023-07-20T01:14:17;5.82;;;2.50;;
22468;SDS011;11401;50.792;4.352;2023-07-20T01:16:44;9.30;;;2.75;;
22468;SDS011;11401;50.792;4.352;2023-07-20T01:19:13;4.38;;;2.40;;
22468;SDS011;11401;50.792;4.352;2023-07-20T01:32:22;2.90;;;2.45;;
22468;SDS011;11401;50.792;4.352;2023-07-20T01:34:52;5.88;;;2.42;;
22468;SDS011;11401;50.792;4.352;2023-07-20T01:37:20;5.57;;;3.05;;
22468;SDS011;11401;50.792;4.352;2023-07-20T01:39:52;4.40;;;2.53;;
22468;SDS011;11401;50.792;4.352;2023-07-20T01:42:23;4.88;;;2.42;;
22468;SDS011;11401;50.792;4.352;2023-07-20T01:44:51;6.05;;;2.38;;
22468;SDS011;11401;50.792;4.352;2023-07-20T01:47:23;5.18;;;2.65;;
22468;SDS011;11401;50.792;4.352;2023-07-20T01:49:50;3.88;;;2.88;;
22468;SDS011;11401;50.792;4.352;2023-07-20T01:52:17;3.90;;;2.88;;
22468;SDS011;11401;50.792;4.352;2023-07-20T01:54:44;7.57;;;2.50;;
22468;SDS011;11401;50.792;4.352;2023-07-20T01:57:11;9.43;;;2.42;;
22468;SDS011;11401;50.792;4.352;2023-07-20T01:59:38;5.80;;;2.78;;
22468;SDS011;11401;50.792;4.352;2023-07-20T02:02:05;9.15;;;3.08;;
22468;SDS011;11401;50.792;4.352;2023-07-20T02:04:32;4.82;;;2.85;;
22468;SDS011;11401;50.792;4.352;2023-07-20T02:06:59;6.15;;;3.00;;
22468;SDS011;11401;50.792;4.352;2023-07-20T02:09:26;10.40;;;3.10;;
22468;SDS011;11401;50.792;4.352;2023-07-20T02:11:53;6.05;;;2.97;;
22468;SDS011;11401;50.792;4.352;2023-07-20T02:14:21;7.40;;;2.55;;
22468;SDS011;11401;50.792;4.352;2023-07-20T02:16:49;8.23;;;2.97;;
22468;SDS011;11401;50.792;4.352;2023-07-20T02:19:20;6.28;;;2.63;;
22468;SDS011;11401;50.792;4.352;2023-07-20T02:21:47;11.57;;;3.20;;
22468;SDS011;11401;50.792;4.352;2023-07-20T02:24:14;9.90;;;2.83;;
22468;SDS011;11401;50.792;4.352;2023-07-20T02:26:41;9.07;;;2.80;;
22468;SDS011;11401;50.792;4.352;2023-07-20T02:29:09;4.18;;;2.65;;
22468;SDS011;11401;50.792;4.352;2023-07-20T02:31:38;6.50;;;3.13;;
22468;SDS011;11401;50.792;4.352;2023-07-20T02:34:06;6.57;;;2.78;;
22468;SDS011;11401;50.792;4.352;2023-07-20T02:36:33;8.30;;;3.30;;
22468;SDS011;11401;50.792;4.352;2023-07-20T02:39:01;9.02;;;3.45;;
22468;SDS011;11401;50.792;4.352;2023-07-20T02:41:32;11.63;;;3.28;;
22468;SDS011;11401;50.792;4.352;2023-07-20T02:44:00;4.93;;;3.55;;
22468;SDS011;11401;50.792;4.352;2023-07-20T02:46:28;6.47;;;3.13;;
22468;SDS011;11401;50.792;4.352;2023-07-20T02:48:57;11.40;;;4.10;;
22468;SDS011;11401;50.792;4.352;2023-07-20T02:51:24;7.93;;;3.47;;
22468;SDS011;11401;50.792;4.352;2023-07-20T02:53:51;7.05;;;2.80;;
22468;SDS011;11401;50.792;4.352;2023-07-20T02:56:18;7.70;;;3.63;;
22468;SDS011;11401;50.792;4.352;2023-07-20T02:58:46;7.18;;;3.42;;
22468;SDS011;11401;50.792;4.352;2023-07-20T03:01:13;8.63;;;3.40;;
22468;SDS011;11401;50.792;4.352;2023-07-20T03:03:42;9.25;;;3.55;;
22468;SDS011;11401;50.792;4.352;2023-07-20T03:06:13;6.30;;;3.00;;
22468;SDS011;11401;50.792;4.352;2023-07-20T03:08:41;5.78;;;3.13;;
22468;SDS011;11401;50.792;4.352;2023-07-20T03:11:12;6.93;;;3.35;;
22468;SDS011;11401;50.792;4.352;2023-07-20T03:13:41;6.40;;;4.25;;
22468;SDS011;11401;50.792;4.352;2023-07-20T03:16:11;7.95;;;3.63;;
22468;SDS011;11401;50.792;4.352;2023-07-20T03:18:41;8.13;;;3.75;;
22468;SDS011;11401;50.792;4.352;2023-07-20T03:21:09;9.48;;;3.45;;
22468;SDS011;11401;50.792;4.352;2023-07-20T03:23:40;6.07;;;3.17;;
22468;SDS011;11401;50.792;4.352;2023-07-20T03:26:08;8.88;;;3.60;;
22468;SDS011;11401;50.792;4.352;2023-07-20T03:28:36;10.70;;;4.70;;
22468;SDS011;11401;50.792;4.352;2023-07-20T03:31:04;7.47;;;4.03;;
22468;SDS011;11401;50.792;4.352;2023-07-20T03:33:36;8.18;;;4.18;;
22468;SDS011;11401;50.792;4.352;2023-07-20T03:36:03;17.17;;;4.07;;
22468;SDS011;11401;50.792;4.352;2023-07-20T03:38:30;7.57;;;3.70;;
22468;SDS011;11401;50.792;4.352;2023-07-20T03:40:58;10.02;;;4.35;;
22468;SDS011;11401;50.792;4.352;2023-07-20T03:43:27;7.60;;;4.53;;
22468;SDS011;11401;50.792;4.352;2023-07-20T03:45:55;10.45;;;4.18;;
22468;SDS011;11401;50.792;4.352;2023-07-20T03:48:23;8.02;;;4.13;;
22468;SDS011;11401;50.792;4.352;2023-07-20T03:50:52;16.08;;;4.97;;
22468;SDS011;11401;50.792;4.352;2023-07-20T03:53:20;10.02;;;4.63;;
22468;SDS011;11401;50.792;4.352;2023-07-20T03:55:48;7.80;;;4.50;;
22468;SDS011;11401;50.792;4.352;2023-07-20T03:58:16;12.38;;;4.50;;
22468;SDS011;11401;50.792;4.352;2023-07-20T04:00:47;13.15;;;4.55;;
22468;SDS011;11401;50.792;4.352;2023-07-20T04:03:19;10.63;;;4.20;;
22468;SDS011;11401;50.792;4.352;2023-07-20T04:05:46;9.00;;;4.78;;
22468;SDS011;11401;50.792;4.352;2023-07-20T04:08:14;6.95;;;4.13;;
22468;SDS011;11401;50.792;4.352;2023-07-20T04:10:44;8.95;;;4.95;;
22468;SDS011;11401;50.792;4.352;2023-07-20T04:13:11;11.23;;;5.00;;
22468;SDS011;11401;50.792;4.352;2023-07-20T04:15:38;10.32;;;4.68;;
22468;SDS011;11401;50.792;4.352;2023-07-20T04:18:06;12.73;;;5.35;;
22468;SDS011;11401;50.792;4.352;2023-07-20T04:20:33;11.45;;;5.03;;
22468;SDS011;11401;50.792;4.352;2023-07-20T04:23:00;10.85;;;4.93;;
22468;SDS011;11401;50.792;4.352;2023-07-20T04:25:28;9.80;;;5.03;;
22468;SDS011;11401;50.792;4.352;2023-07-20T04:27:57;7.90;;;4.90;;
22468;SDS011;11401;50.792;4.352;2023-07-20T04:30:24;9.70;;;5.03;;
22468;SDS011;11401;50.792;4.352;2023-07-20T04:32:51;9.35;;;5.57;;
22468;SDS011;11401;50.792;4.352;2023-07-20T04:35:26;8.00;;;5.70;;
22468;SDS011;11401;50.792;4.352;2023-07-20T04:38:31;11.55;;;5.15;;
22468;SDS011;11401;50.792;4.352;2023-07-20T04:41:08;9.40;;;5.10;;
22468;SDS011;11401;50.792;4.352;2023-07-20T04:43:41;9.90;;;5.45;;
22468;SDS011;11401;50.792;4.352;2023-07-20T04:46:10;9.60;;;5.00;;
22468;SDS011;11401;50.792;4.352;2023-07-20T04:48:38;10.75;;;6.18;;
22468;SDS011;11401;50.792;4.352;2023-07-20T04:51:07;10.77;;;5.03;;
22468;SDS011;11401;50.792;4.352;2023-07-20T04:53:34;12.15;;;5.75;;
22468;SDS011;11401;50.792;4.352;2023-07-20T04:56:02;10.18;;;5.85;;
22468;SDS011;11401;50.792;4.352;2023-07-20T04:58:29;9.02;;;5.43;;
22468;SDS011;11401;50.792;4.352;2023-07-20T05:00:57;14.52;;;6.03;;
22468;SDS011;11401;50.792;4.352;2023-07-20T05:03:24;10.82;;;5.25;;
22468;SDS011;11401;50.792;4.352;2023-07-20T05:05:51;12.80;;;5.13;;
22468;SDS011;11401;50.792;4.352;2023-07-20T05:08:18;11.93;;;5.40;;
22468;SDS011;11401;50.792;4.352;2023-07-20T05:10:47;15.68;;;5.43;;
22468;SDS011;11401;50.792;4.352;2023-07-20T05:13:14;15.63;;;6.75;;
22468;SDS011;11401;50.792;4.352;2023-07-20T05:15:41;9.25;;;5.82;;
22468;SDS011;11401;50.792;4.352;2023-07-20T05:18:12;10.57;;;6.28;;
22468;SDS011;11401;50.792;4.352;2023-07-20T05:20:40;10.85;;;6.72;;
22468;SDS011;11401;50.792;4.352;2023-07-20T05:23:08;10.82;;;5.78;;
22468;SDS011;11401;50.792;4.352;2023-07-20T05:25:35;11.30;;;6.28;;
22468;SDS011;11401;50.792;4.352;2023-07-20T05:28:02;11.52;;;6.38;;
22468;SDS011;11401;50.792;4.352;2023-07-20T05:30:30;14.15;;;5.78;;
22468;SDS011;11401;50.792;4.352;2023-07-20T05:32:57;13.52;;;8.55;;
22468;SDS011;11401;50.792;4.352;2023-07-20T05:35:25;12.07;;;6.38;;
22468;SDS011;11401;50.792;4.352;2023-07-20T05:37:52;12.45;;;6.90;;
22468;SDS011;11401;50.792;4.352;2023-07-20T05:40:20;11.55;;;6.40;;
22468;SDS011;11401;50.792;4.352;2023-07-20T05:42:47;10.88;;;6.20;;
22468;SDS011;11401;50.792;4.352;2023-07-20T05:45:18;14.20;;;6.88;;
22468;SDS011;11401;50.792;4.352;2023-07-20T05:47:45;10.18;;;7.22;;
22468;SDS011;11401;50.792;4.352;2023-07-20T05:50:13;9.95;;;6.95;;
22468;SDS011;11401;50.792;4.352;2023-07-20T05:52:40;8.73;;;6.63;;
22468;SDS011;11401;50.792;4.352;2023-07-20T05:55:07;16.83;;;6.40;;
22468;SDS011;11401;50.792;4.352;2023-07-20T05:57:34;10.07;;;6.88;;
22468;SDS011;11401;50.792;4.352;2023-07-20T06:00:02;17.48;;;7.63;;
22468;SDS011;11401;50.792;4.352;2023-07-20T06:02:37;9.40;;;6.63;;
22468;SDS011;11401;50.792;4.352;2023-07-20T06:05:08;12.60;;;6.30;;
22468;SDS011;11401;50.792;4.352;2023-07-20T06:07:36;15.00;;;6.82;;
22468;SDS011;11401;50.792;4.352;2023-07-20T06:10:04;15.77;;;7.28;;
22468;SDS011;11401;50.792;4.352;2023-07-20T06:12:32;14.77;;;7.75;;
22468;SDS011;11401;50.792;4.352;2023-07-20T06:15:04;15.00;;;7.88;;
22468;SDS011;11401;50.792;4.352;2023-07-20T06:17:31;13.63;;;5.88;;
22468;SDS011;11401;50.792;4.352;2023-07-20T06:19:59;13.40;;;7.30;;
22468;SDS011;11401;50.792;4.352;2023-07-20T06:22:26;11.23;;;7.55;;
22468;SDS011;11401;50.792;4.352;2023-07-20T06:24:53;13.98;;;7.18;;
22468;SDS011;11401;50.792;4.352;2023-07-20T06:27:20;9.65;;;6.72;;
22468;SDS011;11401;50.792;4.352;2023-07-20T06:29:47;12.98;;;7.72;;
22468;SDS011;11401;50.792;4.352;2023-07-20T06:32:14;15.05;;;7.43;;
22468;SDS011;11401;50.792;4.352;2023-07-20T06:34:41;9.65;;;6.53;;
22468;SDS011;11401;50.792;4.352;2023-07-20T06:37:09;14.27;;;7.88;;
22468;SDS011;11401;50.792;4.352;2023-07-20T06:39:36;12.10;;;6.88;;
22468;SDS011;11401;50.792;4.352;2023-07-20T06:42:06;14.68;;;7.50;;
22468;SDS011;11401;50.792;4.352;2023-07-20T06:44:33;10.32;;;7.10;;
22468;SDS011;11401;50.792;4.352;2023-07-20T06:47:00;9.07;;;6.13;;
22468;SDS011;11401;50.792;4.352;2023-07-20T06:49:27;13.65;;;7.40;;
22468;SDS011;11401;50.792;4.352;2023-07-20T06:51:55;13.82;;;7.15;;
22468;SDS011;11401;50.792;4.352;2023-07-20T06:54:22;13.00;;;7.40;;
22468;SDS011;11401;50.792;4.352;2023-07-20T06:56:49;14.65;;;7.90;;
22468;SDS011;11401;50.792;4.352;2023-07-20T06:59:37;13.80;;;7.82;;
22468;SDS011;11401;50.792;4.352;2023-07-20T07:02:06;13.20;;;6.65;;
22468;SDS011;11401;50.792;4.352;2023-07-20T07:04:40;7.95;;;4.75;;
22468;SDS011;11401;50.792;4.352;2023-07-20T07:07:08;12.65;;;7.47;;
22468;SDS011;11401;50.792;4.352;2023-07-20T07:09:35;10.95;;;6.25;;
22468;SDS011;11401;50.792;4.352;2023-07-20T07:12:03;7.85;;;6.43;;
22468;SDS011;11401;50.792;4.352;2023-07-20T07:14:31;16.85;;;6.28;;
22468;SDS011;11401;50.792;4.352;2023-07-20T07:16:59;11.45;;;5.53;;
22468;SDS011;11401;50.792;4.352;2023-07-20T07:19:30;8.30;;;5.07;;
22468;SDS011;11401;50.792;4.352;2023-07-20T07:21:58;5.88;;;5.00;;
22468;SDS011;11401;50.792;4.352;2023-07-20T07:24:26;11.57;;;6.80;;
22468;SDS011;11401;50.792;4.352;2023-07-20T07:27:00;8.25;;;5.18;;
22468;SDS011;11401;50.792;4.352;2023-07-20T07:29:27;7.43;;;4.53;;
22468;SDS011;11401;50.792;4.352;2023-07-20T07:31:55;22.50;;;18.77;;
22468;SDS011;11401;50.792;4.352;2023-07-20T07:34:22;9.80;;;6.25;;
22468;SDS011;11401;50.792;4.352;2023-07-20T07:36:49;9.95;;;4.93;;
22468;SDS011;11401;50.792;4.352;2023-07-20T07:39:17;6.95;;;5.82;;
22468;SDS011;11401;50.792;4.352;2023-07-20T07:41:47;7.75;;;4.82;;
22468;SDS011;11401;50.792;4.352;2023-07-20T07:44:14;6.40;;;4.90;;
22468;SDS011;11401;50.792;4.352;2023-07-20T07:46:41;7.50;;;4.13;;
22468;SDS011;11401;50.792;4.352;2023-07-20T07:49:08;4.60;;;3.25;;
22468;SDS011;11401;50.792;4.352;2023-07-20T07:51:35;9.48;;;4.43;;
22468;SDS011;11401;50.792;4.352;2023-07-20T07:54:04;4.78;;;3.72;;
22468;SDS011;11401;50.792;4.352;2023-07-20T07:56:31;7.30;;;3.38;;
22468;SDS011;11401;50.792;4.352;2023-07-20T07:58:58;5.63;;;3.22;;
22468;SDS011;11401;50.792;4.352;2023-07-20T08:01:25;4.95;;;3.38;;
22468;SDS011;11401;50.792;4.352;2023-07-20T08:03:52;5.22;;;3.25;;
22468;SDS011;11401;50.792;4.352;2023-07-20T08:06:19;6.53;;;3.72;;
22468;SDS011;11401;50.792;4.352;2023-07-20T08:08:47;3.90;;;2.92;;
22468;SDS011;11401;50.792;4.352;2023-07-20T08:11:14;2.90;;;2.70;;
22468;SDS011;11401;50.792;4.352;2023-07-20T08:13:41;4.22;;;2.47;;
22468;SDS011;11401;50.792;4.352;2023-07-20T08:16:08;6.25;;;3.20;;
22468;SDS011;11401;50.792;4.352;2023-07-20T08:18:35;3.90;;;2.90;;
22468;SDS011;11401;50.792;4.352;2023-07-20T08:21:03;4.28;;;3.33;;
22468;SDS011;11401;50.792;4.352;2023-07-20T08:23:30;4.03;;;3.00;;
22468;SDS011;11401;50.792;4.352;2023-07-20T08:25:57;2.83;;;2.63;;
22468;SDS011;11401;50.792;4.352;2023-07-20T08:28:24;4.65;;;3.28;;
22468;SDS011;11401;50.792;4.352;2023-07-20T08:30:53;3.28;;;2.40;;
22468;SDS011;11401;50.792;4.352;2023-07-20T08:33:20;3.10;;;2.33;;
22468;SDS011;11401;50.792;4.352;2023-07-20T08:35:47;5.50;;;2.35;;
22468;SDS011;11401;50.792;4.352;2023-07-20T08:38:14;3.55;;;2.50;;
22468;SDS011;11401;50.792;4.352;2023-07-20T08:40:42;2.55;;;2.35;;
22468;SDS011;11401;50.792;4.352;2023-07-20T08:43:11;2.63;;;1.80;;
22468;SDS011;11401;50.792;4.352;2023-07-20T08:45:39;3.55;;;2.10;;
22468;SDS011;11401;50.792;4.352;2023-07-20T08:48:07;1.95;;;1.85;;
22468;SDS011;11401;50.792;4.352;2023-07-20T08:50:35;2.05;;;1.50;;
22468;SDS011;11401;50.792;4.352;2023-07-20T08:53:02;2.38;;;1.63;;
22468;SDS011;11401;50.792;4.352;2023-07-20T08:55:30;2.55;;;1.40;;
22468;SDS011;11401;50.792;4.352;2023-07-20T08:57:58;1.85;;;1.75;;
22468;SDS011;11401;50.792;4.352;2023-07-20T09:00:26;2.08;;;1.85;;
22468;SDS011;11401;50.792;4.352;2023-07-20T09:02:56;1.50;;;1.40;;
22468;SDS011;11401;50.792;4.352;2023-07-20T09:05:24;1.45;;;1.35;;
22468;SDS011;11401;50.792;4.352;2023-07-20T09:07:53;1.50;;;1.40;;
22468;SDS011;11401;50.792;4.352;2023-07-20T09:10:21;2.40;;;1.67;;
22468;SDS011;11401;50.792;4.352;2023-07-20T09:12:49;2.20;;;1.85;;
22468;SDS011;11401;50.792;4.352;2023-07-20T09:15:16;2.47;;;1.80;;
22468;SDS011;11401;50.792;4.352;2023-07-20T09:17:49;3.38;;;1.58;;
22468;SDS011;11401;50.792;4.352;2023-07-20T09:20:18;2.05;;;1.45;;
22468;SDS011;11401;50.792;4.352;2023-07-20T09:22:50;2.17;;;1.20;;
22468;SDS011;11401;50.792;4.352;2023-07-20T09:25:19;1.40;;;1.30;;
22468;SDS011;11401;50.792;4.352;2023-07-20T09:27:49;1.52;;;1.05;;
22468;SDS011;11401;50.792;4.352;2023-07-20T09:30:18;1.60;;;1.33;;
22468;SDS011;11401;50.792;4.352;2023-07-20T09:32:48;2.05;;;1.50;;
22468;SDS011;11401;50.792;4.352;2023-07-20T09:35:20;1.48;;;1.15;;
22468;SDS011;11401;50.792;4.352;2023-07-20T09:37:54;2.13;;;1.40;;
22468;SDS011;11401;50.792;4.352;2023-07-20T09:40:27;1.75;;;1.42;;
22468;SDS011;11401;50.792;4.352;2023-07-20T09:42:58;1.38;;;1.17;;
22468;SDS011;11401;50.792;4.352;2023-07-20T09:45:40;1.38;;;1.27;;
22468;SDS011;11401;50.792;4.352;2023-07-20T09:48:11;2.05;;;1.60;;
22468;SDS011;11401;50.792;4.352;2023-07-20T09:50:43;1.80;;;1.20;;
22468;SDS011;11401;50.792;4.352;2023-07-20T09:53:17;1.15;;;1.13;;
22468;SDS011;11401;50.792;4.352;2023-07-20T09:55:46;1.40;;;1.30;;
22468;SDS011;11401;50.792;4.352;2023-07-20T09:58:14;2.20;;;2.00;;
22468;SDS011;11401;50.792;4.352;2023-07-20T10:00:43;2.20;;;1.80;;
22468;SDS011;11401;50.792;4.352;2023-07-20T10:03:19;1.83;;;1.20;;
22468;SDS011;11401;50.792;4.352;2023-07-20T10:05:52;1.70;;;1.20;;
22468;SDS011;11401;50.792;4.352;2023-07-20T10:08:24;1.30;;;1.20;;
22468;SDS011;11401;50.792;4.352;2023-07-20T10:10:54;1.50;;;1.30;;
22468;SDS011;11401;50.792;4.352;2023-07-20T10:13:27;1.30;;;1.25;;
22468;SDS011;11401;50.792;4.352;2023-07-20T10:16:01;1.25;;;1.15;;
22468;SDS011;11401;50.792;4.352;2023-07-20T10:18:52;1.30;;;1.20;;
22468;SDS011;11401;50.792;4.352;2023-07-20T10:21:42;1.30;;;1.17;;
22468;SDS011;11401;50.792;4.352;2023-07-20T10:24:21;1.80;;;1.33;;
22468;SDS011;11401;50.792;4.352;2023-07-20T10:26:49;1.38;;;1.27;;
22468;SDS011;11401;50.792;4.352;2023-07-20T10:29:17;1.60;;;1.50;;
22468;SDS011;11401;50.792;4.352;2023-07-20T10:31:44;1.50;;;1.40;;
22468;SDS011;11401;50.792;4.352;2023-07-20T10:34:11;1.27;;;1.15;;
22468;SDS011;11401;50.792;4.352;2023-07-20T10:36:45;3.53;;;1.55;;
22468;SDS011;11401;50.792;4.352;2023-07-20T10:39:28;2.92;;;1.60;;
22468;SDS011;11401;50.792;4.352;2023-07-20T10:42:06;1.38;;;1.27;;
22468;SDS011;11401;50.792;4.352;2023-07-20T10:44:36;1.40;;;1.30;;
22468;SDS011;11401;50.792;4.352;2023-07-20T10:47:11;2.70;;;1.30;;
22468;SDS011;11401;50.792;4.352;2023-07-20T10:50:13;1.48;;;1.38;;
22468;SDS011;11401;50.792;4.352;2023-07-20T10:52:36;1.25;;;1.02;;
22468;SDS011;11401;50.792;4.352;2023-07-20T10:55:16;1.45;;;1.35;;
22468;SDS011;11401;50.792;4.352;2023-07-20T10:57:44;1.52;;;1.40;;
22468;SDS011;11401;50.792;4.352;2023-07-20T11:00:34;1.90;;;1.70;;
22468;SDS011;11401;50.792;4.352;2023-07-20T11:03:02;1.00;;;1.00;;
22468;SDS011;11401;50.792;4.352;2023-07-20T11:05:33;5.65;;;2.40;;
22468;SDS011;11401;50.792;4.352;2023-07-20T11:08:14;3.10;;;1.50;;
22468;SDS011;11401;50.792;4.352;2023-07-20T11:13:57;2.30;;;2.17;;
22468;SDS011;11401;50.792;4.352;2023-07-20T11:16:41;2.20;;;2.10;;
22468;SDS011;11401;50.792;4.352;2023-07-20T11:19:28;1.52;;;1.42;;
22468;SDS011;11401;50.792;4.352;2023-07-20T11:21:58;1.95;;;1.77;;
22468;SDS011;11401;50.792;4.352;2023-07-20T11:24:30;1.50;;;1.40;;
22468;SDS011;11401;50.792;4.352;2023-07-20T11:26:58;2.30;;;2.10;;
22468;SDS011;11401;50.792;4.352;2023-07-20T11:29:26;3.38;;;1.33;;
22468;SDS011;11401;50.792;4.352;2023-07-20T11:31:59;11.85;;;1.90;;
22468;SDS011;11401;50.792;4.352;2023-07-20T11:34:27;4.13;;;2.63;;
22468;SDS011;11401;50.792;4.352;2023-07-20T11:36:56;3.38;;;1.85;;
22468;SDS011;11401;50.792;4.352;2023-07-20T11:39:26;1.65;;;1.55;;
22468;SDS011;11401;50.792;4.352;2023-07-20T11:41:56;1.85;;;1.75;;
22468;SDS011;11401;50.792;4.352;2023-07-20T11:44:25;2.70;;;2.15;;
22468;SDS011;11401;50.792;4.352;2023-07-20T11:47:10;1.67;;;1.58;;
22468;SDS011;11401;50.792;4.352;2023-07-20T11:49:42;1.60;;;1.50;;
22468;SDS011;11401;50.792;4.352;2023-07-20T11:52:10;1.52;;;1.42;;
22468;SDS011;11401;50.792;4.352;2023-07-20T11:54:40;1.95;;;1.70;;
22468;SDS011;11401;50.792;4.352;2023-07-20T11:57:21;2.40;;;2.20;;
22468;SDS011;11401;50.792;4.352;2023-07-20T11:59:54;2.25;;;2.15;;
22468;SDS011;11401;50.792;4.352;2023-07-20T12:02:30;2.88;;;2.28;;
22468;SDS011;11401;50.792;4.352;2023-07-20T12:04:57;2.38;;;1.60;;
22468;SDS011;11401;50.792;4.352;2023-07-20T12:07:26;1.70;;;1.60;;
22468;SDS011;11401;50.792;4.352;2023-07-20T12:10:04;2.05;;;1.90;;
22468;SDS011;11401;50.792;4.352;2023-07-20T12:12:33;1.70;;;1.60;;
22468;SDS011;11401;50.792;4.352;2023-07-20T12:17:51;2.25;;;2.10;;
22468;SDS011;11401;50.792;4.352;2023-07-20T12:23:02;3.25;;;2.17;;
22468;SDS011;11401;50.792;4.352;2023-07-20T12:25:43;1.73;;;1.63;;
22468;SDS011;11401;50.792;4.352;2023-07-20T12:28:15;2.20;;;2.10;;
22468;SDS011;11401;50.792;4.352;2023-07-20T12:30:44;2.15;;;1.92;;
22468;SDS011;11401;50.792;4.352;2023-07-20T12:33:12;1.73;;;1.63;;
22468;SDS011;11401;50.792;4.352;2023-07-20T12:35:44;2.15;;;2.00;;
22468;SDS011;11401;50.792;4.352;2023-07-20T12:38:11;2.10;;;2.00;;
22468;SDS011;11401;50.792;4.352;2023-07-20T12:40:38;2.08;;;1.85;;
22468;SDS011;11401;50.792;4.352;2023-07-20T12:43:07;3.28;;;2.15;;
22468;SDS011;11401;50.792;4.352;2023-07-20T12:45:34;2.67;;;2.05;;
22468;SDS011;11401;50.792;4.352;2023-07-20T12:48:01;1.60;;;1.50;;
22468;SDS011;11401;50.792;4.352;2023-07-20T12:50:28;1.92;;;1.83;;
22468;SDS011;11401;50.792;4.352;2023-07-20T12:52:56;1.67;;;1.58;;
22468;SDS011;11401;50.792;4.352;2023-07-20T12:55:23;2.30;;;2.10;;
22468;SDS011;11401;50.792;4.352;2023-07-20T12:57:50;2.30;;;1.83;;
22468;SDS011;11401;50.792;4.352;2023-07-20T13:00:17;1.73;;;1.60;;
22468;SDS011;11401;50.792;4.352;2023-07-20T13:02:44;1.83;;;1.73;;
22468;SDS011;11401;50.792;4.352;2023-07-20T13:05:11;1.70;;;1.60;;
22468;SDS011;11401;50.792;4.352;2023-07-20T13:07:38;1.88;;;1.77;;
22468;SDS011;11401;50.792;4.352;2023-07-20T13:10:11;1.85;;;1.75;;
22468;SDS011;11401;50.792;4.352;2023-07-20T13:12:38;1.70;;;1.60;;
22468;SDS011;11401;50.792;4.352;2023-07-20T13:15:06;1.65;;;1.55;;
22468;SDS011;11401;50.792;4.352;2023-07-20T13:17:34;2.47;;;2.03;;
22468;SDS011;11401;50.792;4.352;2023-07-20T13:20:03;1.58;;;1.48;;
22468;SDS011;11401;50.792;4.352;2023-07-20T13:22:33;3.17;;;1.75;;
22468;SDS011;11401;50.792;4.352;2023-07-20T13:25:01;1.90;;;1.80;;
22468;SDS011;11401;50.792;4.352;2023-07-20T13:27:28;1.90;;;1.80;;
22468;SDS011;11401;50.792;4.352;2023-07-20T13:29:58;1.90;;;1.80;;
22468;SDS011;11401;50.792;4.352;2023-07-20T13:32:29;1.75;;;1.50;;
22468;SDS011;11401;50.792;4.352;2023-07-20T13:35:00;1.85;;;1.75;;
22468;SDS011;11401;50.792;4.352;2023-07-20T13:37:28;1.95;;;1.85;;
22468;SDS011;11401;50.792;4.352;2023-07-20T13:39:55;2.08;;;1.90;;
22468;SDS011;11401;50.792;4.352;2023-07-20T13:42:23;1.98;;;1.80;;
22468;SDS011;11401;50.792;4.352;2023-07-20T13:44:51;1.67;;;1.58;;
22468;SDS011;11401;50.792;4.352;2023-07-20T13:47:18;1.67;;;1.58;;
22468;SDS011;11401;50.792;4.352;2023-07-20T13:49:48;2.80;;;1.83;;
22468;SDS011;11401;50.792;4.352;2023-07-20T13:52:28;1.73;;;1.63;;
22468;SDS011;11401;50.792;4.352;2023-07-20T13:54:58;1.92;;;1.83;;
22468;SDS011;11401;50.792;4.352;2023-07-20T13:57:26;1.60;;;1.50;;
22468;SDS011;11401;50.792;4.352;2023-07-20T13:59:53;2.00;;;1.80;;
22468;SDS011;11401;50.792;4.352;2023-07-20T14:02:20;2.00;;;1.90;;
22468;SDS011;11401;50.792;4.352;2023-07-20T14:04:50;2.20;;;2.00;;
22468;SDS011;11401;50.792;4.352;2023-07-20T14:07:37;1.80;;;1.70;;
22468;SDS011;11401;50.792;4.352;2023-07-20T14:10:04;1.80;;;1.70;;
22468;SDS011;11401;50.792;4.352;2023-07-20T14:12:34;1.80;;;1.70;;
22468;SDS011;11401;50.792;4.352;2023-07-20T14:15:01;3.60;;;2.10;;
22468;SDS011;11401;50.792;4.352;2023-07-20T14:17:30;2.00;;;1.90;;
22468;SDS011;11401;50.792;4.352;2023-07-20T14:19:58;4.13;;;1.98;;
22468;SDS011;11401;50.792;4.352;2023-07-20T14:22:25;1.63;;;1.52;;
22468;SDS011;11401;50.792;4.352;2023-07-20T14:24:53;4.13;;;2.50;;
22468;SDS011;11401;50.792;4.352;2023-07-20T14:27:20;1.80;;;1.70;;
22468;SDS011;11401;50.792;4.352;2023-07-20T14:29:47;2.47;;;2.28;;
22468;SDS011;11401;50.792;4.352;2023-07-20T14:32:14;1.90;;;1.80;;
22468;SDS011;11401;50.792;4.352;2023-07-20T14:34:42;1.73;;;1.63;;
22468;SDS011;11401;50.792;4.352;2023-07-20T14:37:12;2.17;;;1.92;;
22468;SDS011;11401;50.792;4.352;2023-07-20T14:39:40;3.58;;;2.53;;
22468;SDS011;11401;50.792;4.352;2023-07-20T14:42:07;2.15;;;1.95;;
22468;SDS011;11401;50.792;4.352;2023-07-20T14:44:34;1.90;;;1.73;;
22468;SDS011;11401;50.792;4.352;2023-07-20T14:47:03;1.90;;;1.80;;
22468;SDS011;11401;50.792;4.352;2023-07-20T14:49:40;1.98;;;1.83;;
22468;SDS011;11401;50.792;4.352;2023-07-20T14:52:07;1.83;;;1.73;;
22468;SDS011;11401;50.792;4.352;2023-07-20T14:54:37;2.35;;;1.70;;
22468;SDS011;11401;50.792;4.352;2023-07-20T14:57:05;2.58;;;2.08;;
22468;SDS011;11401;50.792;4.352;2023-07-20T14:59:39;2.22;;;1.90;;
22468;SDS011;11401;50.792;4.352;2023-07-20T15:02:10;1.88;;;1.77;;
22468;SDS011;11401;50.792;4.352;2023-07-20T15:04:45;1.83;;;1.73;;
22468;SDS011;11401;50.792;4.352;2023-07-20T15:07:16;1.63;;;1.52;;
22468;SDS011;11401;50.792;4.352;2023-07-20T15:09:44;1.52;;;1.42;;
22468;SDS011;11401;50.792;4.352;2023-07-20T15:12:12;2.03;;;1.92;;
22468;SDS011;11401;50.792;4.352;2023-07-20T15:14:40;2.75;;;2.10;;
22468;SDS011;11401;50.792;4.352;2023-07-20T15:17:09;1.85;;;1.70;;
22468;SDS011;11401;50.792;4.352;2023-07-20T15:19:37;1.88;;;1.55;;
22468;SDS011;11401;50.792;4.352;2023-07-20T15:22:04;1.80;;;1.70;;
22468;SDS011;11401;50.792;4.352;2023-07-20T15:24:33;1.83;;;1.73;;
22468;SDS011;11401;50.792;4.352;2023-07-20T15:27:02;2.10;;;2.00;;